Time;durP1;ratioP1;P1;durP2;ratioP2;P2;SDS_P1;SDS_P2;PMS_P1;PMS_P2;Temp;Humidity;BMP_temperature;BMP_pressure;BME280_temperature;BME280_humidity;BME280_pressure;Samples;Min_cycle;Max_cycle;Signal;HPM_P1;HPM_P2
2023/07/04 00:00:25;;;;;;;;;;;18.60;98.70;;;;;;7618189;19;19925;-83
2023/07/04 00:02:57;;;;;;;;;;;18.60;98.80;;;;;;7629818;19;19947;-81
2023/07/04 00:05:30;;;;;;;;;;;18.50;98.90;;;;;;7609762;19;21094;-83
2023/07/04 00:08:02;;;;;;;;;;;18.60;98.80;;;;;;7602507;19;19943;-83
2023/07/04 00:10:36;;;;;;;;;;;18.60;98.80;;;;;;7595983;19;19926;-82
2023/07/04 00:13:08;;;;;;;;;;;18.60;98.60;;;;;;7596850;19;20376;-82
2023/07/04 00:15:45;;;;;;;;;;;18.60;98.70;;;;;;7593582;19;19926;-83
2023/07/04 00:18:20;;;;;;;;;;;18.60;98.80;;;;;;7605928;19;19923;-82
2023/07/04 00:21:03;;;;;;;;;;;18.60;98.60;;;;;;7618048;19;19939;-83
2023/07/04 00:23:36;;;;;;;;;;;18.70;98.60;;;;;;7611311;19;19919;-82
2023/07/04 00:26:08;;;;;;;;;;;18.70;98.50;;;;;;7608178;19;20174;-81
2023/07/04 00:28:42;;;;;;;;;;;18.70;98.50;;;;;;7611958;19;19947;-83
2023/07/04 00:31:20;;;;;;;;;;;18.70;98.50;;;;;;7609230;19;21099;-82
2023/07/04 00:33:53;;;;;;;;;;;18.90;98.60;;;;;;7603161;19;19923;-83
2023/07/04 00:36:29;;;;;;;;;;;18.70;98.50;;;;;;7620738;19;20011;-83
2023/07/04 00:39:01;;;;;;;;;;;18.70;98.70;;;;;;7617596;19;19955;-82
2023/07/04 00:41:35;;;;;;;;;;;18.70;98.90;;;;;;7603867;19;19918;-82
2023/07/04 00:44:19;;;;;;;;;;;18.70;98.90;;;;;;7611457;19;20419;-81
2023/07/04 00:47:10;;;;;;;;;;;18.70;98.90;;;;;;7606095;19;19961;-82
2023/07/04 00:49:48;;;;;;;;;;;18.60;99.10;;;;;;7604880;19;19922;-82
2023/07/04 00:52:25;;;;;;;;;;;18.60;99.10;;;;;;7613388;19;19915;-82
2023/07/04 00:55:00;;;;;;;;;;;18.60;99.30;;;;;;7610474;19;19982;-82
2023/07/04 00:57:33;;;;;;;;;;;18.50;99.70;;;;;;7605746;19;21743;-81
2023/07/04 01:00:17;;;;;;;;;;;18.50;99.50;;;;;;7605445;19;20305;-82
2023/07/04 01:02:51;;;;;;;;;;;18.50;99.50;;;;;;7596318;19;20206;-81
2023/07/04 01:05:27;;;;;;;;;;;18.50;99.50;;;;;;7597607;19;19918;-81
2023/07/04 01:08:02;;;;;;;;;;;18.50;99.60;;;;;;7607070;19;19926;-81
2023/07/04 01:10:40;;;;;;;;;;;18.50;99.70;;;;;;7597449;19;19922;-81
2023/07/04 01:13:27;;;;;;;;;;;18.50;99.80;;;;;;7593346;19;19923;-81
2023/07/04 01:16:01;;;;;;;;;;;18.50;99.90;;;;;;7599341;19;21154;-81
2023/07/04 01:18:34;;;;;;;;;;;18.50;99.90;;;;;;7597936;19;19914;-81
2023/07/04 01:21:07;;;;;;;;;;;18.40;99.90;;;;;;7596665;19;20506;-81
2023/07/04 01:23:45;;;;;;;;;;;18.40;99.90;;;;;;7588900;19;19922;-81
2023/07/04 01:26:21;;;;;;;;;;;18.50;99.90;;;;;;7596952;19;20009;-80
2023/07/04 01:28:54;;;;;;;;;;;18.40;99.90;;;;;;7608236;19;19919;-81
2023/07/04 01:31:27;;;;;;;;;;;18.40;99.90;;;;;;7609372;19;19953;-82
2023/07/04 01:34:02;;;;;;;;;;;18.40;99.90;;;;;;7597092;19;21678;-82
2023/07/04 01:36:37;;;;;;;;;;;18.30;99.90;;;;;;7602945;19;19923;-81
2023/07/04 01:39:14;;;;;;;;;;;18.20;99.90;;;;;;7606188;19;19923;-83
2023/07/04 01:41:47;;;;;;;;;;;18.20;99.90;;;;;;7622628;19;19926;-83
2023/07/04 01:44:24;;;;;;;;;;;18.20;99.90;;;;;;7630091;19;19914;-82
2023/07/04 01:46:56;;;;;;;;;;;18.20;99.90;;;;;;7641041;19;21298;-85
2023/07/04 01:49:28;;;;;;;;;;;18.10;99.90;;;;;;7636423;19;19911;-83
2023/07/04 01:52:01;;;;;;;;;;;18.00;99.90;;;;;;7625754;19;19961;-81
2023/07/04 01:54:33;;;;;;;;;;;18.10;99.90;;;;;;7622461;19;19933;-82
2023/07/04 01:57:10;;;;;;;;;;;18.20;99.90;;;;;;7625729;19;19923;-81
2023/07/04 01:59:42;;;;;;;;;;;18.20;99.90;;;;;;7624461;19;19943;-82
2023/07/04 02:02:15;;;;;;;;;;;18.20;99.90;;;;;;7633320;19;19923;-83
2023/07/04 02:04:47;;;;;;;;;;;18.20;99.90;;;;;;7627860;19;19943;-83
2023/07/04 02:07:20;;;;;;;;;;;18.00;99.90;;;;;;7636690;19;19974;-83
2023/07/04 02:09:52;;;;;;;;;;;18.00;99.90;;;;;;7640114;19;19918;-81
2023/07/04 02:12:24;;;;;;;;;;;18.00;99.90;;;;;;7649399;19;19919;-83
2023/07/04 02:14:56;;;;;;;;;;;18.00;99.90;;;;;;7654231;19;19918;-84
2023/07/04 02:17:29;;;;;;;;;;;17.90;99.90;;;;;;7647195;19;20370;-83
2023/07/04 02:20:01;;;;;;;;;;;17.90;99.90;;;;;;7654914;19;19955;-82
2023/07/04 02:22:34;;;;;;;;;;;17.70;99.90;;;;;;7645176;19;19918;-81
2023/07/04 02:25:07;;;;;;;;;;;17.70;99.90;;;;;;7640524;19;19923;-82
2023/07/04 02:27:40;;;;;;;;;;;17.80;99.90;;;;;;7635655;19;19965;-82
2023/07/04 02:30:14;;;;;;;;;;;17.80;99.90;;;;;;7613732;19;19918;-81
2023/07/04 02:32:46;;;;;;;;;;;17.80;99.90;;;;;;7621544;19;19922;-81
2023/07/04 02:35:19;;;;;;;;;;;17.80;99.90;;;;;;7612741;19;19923;-82
2023/07/04 02:37:51;;;;;;;;;;;17.80;99.90;;;;;;7631578;19;19970;-82
2023/07/04 02:40:24;;;;;;;;;;;17.70;99.90;;;;;;7631756;19;19936;-82
2023/07/04 02:42:58;;;;;;;;;;;17.70;99.90;;;;;;7633495;19;20021;-81
2023/07/04 02:45:31;;;;;;;;;;;17.70;99.90;;;;;;7627702;19;19966;-81
2023/07/04 02:48:04;;;;;;;;;;;17.60;99.90;;;;;;7625054;19;20077;-82
2023/07/04 02:50:36;;;;;;;;;;;17.60;99.90;;;;;;7615860;19;20510;-81
2023/07/04 02:53:08;;;;;;;;;;;17.60;99.90;;;;;;7623370;19;19915;-82
2023/07/04 02:55:41;;;;;;;;;;;17.50;99.90;;;;;;7623296;19;19945;-82
2023/07/04 02:58:14;;;;;;;;;;;17.60;99.90;;;;;;7630137;19;19919;-81
2023/07/04 03:00:47;;;;;;;;;;;17.60;99.90;;;;;;7623989;19;20006;-82
2023/07/04 03:03:21;;;;;;;;;;;17.70;99.90;;;;;;7629599;19;19933;-83
2023/07/04 03:05:56;;;;;;;;;;;17.70;99.90;;;;;;7619470;19;19915;-83
2023/07/04 03:08:28;;;;;;;;;;;17.60;99.90;;;;;;7627375;19;19930;-84
2023/07/04 03:11:02;;;;;;;;;;;17.50;99.90;;;;;;7619524;19;19918;-82
2023/07/04 03:13:36;;;;;;;;;;;17.30;99.90;;;;;;7617681;19;19918;-84
2023/07/04 03:16:09;;;;;;;;;;;17.30;99.90;;;;;;7624544;19;19952;-83
2023/07/04 03:18:44;;;;;;;;;;;17.20;99.90;;;;;;7626026;19;19976;-83
2023/07/04 03:21:17;;;;;;;;;;;17.20;99.90;;;;;;7623719;19;19923;-84
2023/07/04 03:23:49;;;;;;;;;;;17.10;99.90;;;;;;7620185;19;19926;-82
2023/07/04 03:26:22;;;;;;;;;;;17.10;99.90;;;;;;7622213;19;19982;-81
2023/07/04 03:28:55;;;;;;;;;;;16.90;99.90;;;;;;7616912;19;19951;-82
2023/07/04 03:31:28;;;;;;;;;;;16.90;99.90;;;;;;7611783;19;19922;-83
2023/07/04 03:34:01;;;;;;;;;;;16.90;99.90;;;;;;7601175;19;19926;-82
2023/07/04 03:36:35;;;;;;;;;;;16.80;99.90;;;;;;7610011;19;19922;-82
2023/07/04 03:39:07;;;;;;;;;;;16.80;99.90;;;;;;7615417;19;19921;-83
2023/07/04 03:41:39;;;;;;;;;;;16.80;99.90;;;;;;7602421;19;20914;-83
2023/07/04 03:44:11;;;;;;;;;;;16.80;99.90;;;;;;7592707;19;19954;-83
2023/07/04 03:46:44;;;;;;;;;;;16.90;99.90;;;;;;7601212;19;20814;-82
2023/07/04 03:49:16;;;;;;;;;;;16.80;99.90;;;;;;7607830;19;19922;-83
2023/07/04 03:51:48;;;;;;;;;;;16.70;99.90;;;;;;7600613;19;20041;-83
2023/07/04 03:54:21;;;;;;;;;;;16.80;99.90;;;;;;7599528;19;19947;-85
2023/07/04 03:56:53;;;;;;;;;;;16.70;99.90;;;;;;7612783;19;19919;-83
2023/07/04 03:59:25;;;;;;;;;;;16.70;99.90;;;;;;7596527;19;19911;-82
2023/07/04 04:01:57;;;;;;;;;;;16.70;99.90;;;;;;7618658;19;21408;-82
2023/07/04 04:04:36;;;;;;;;;;;16.70;99.90;;;;;;7605228;19;19978;-83
2023/07/04 04:07:11;;;;;;;;;;;16.50;99.90;;;;;;7613040;19;19929;-83
2023/07/04 04:09:43;;;;;;;;;;;16.60;99.90;;;;;;7600941;19;19933;-82
2023/07/04 04:12:15;;;;;;;;;;;16.60;99.90;;;;;;7579868;19;19919;-83
2023/07/04 04:14:50;;;;;;;;;;;16.60;99.90;;;;;;7588273;19;19923;-83
2023/07/04 04:17:22;;;;;;;;;;;16.60;99.90;;;;;;7575950;19;19930;-83
2023/07/04 04:19:54;;;;;;;;;;;16.70;99.90;;;;;;7541677;19;20014;-83
2023/07/04 04:22:27;;;;;;;;;;;16.60;99.90;;;;;;7582427;19;19925;-84
2023/07/04 04:24:59;;;;;;;;;;;16.70;99.90;;;;;;7575987;19;19922;-84
2023/07/04 04:27:31;;;;;;;;;;;16.70;99.90;;;;;;7581579;19;19915;-84
2023/07/04 04:30:08;;;;;;;;;;;16.70;99.90;;;;;;7573626;19;19923;-83
2023/07/04 04:32:41;;;;;;;;;;;16.80;99.90;;;;;;7585234;19;19919;-83
2023/07/04 04:35:14;;;;;;;;;;;16.80;99.90;;;;;;7584792;19;19918;-82
2023/07/04 04:37:47;;;;;;;;;;;16.90;99.90;;;;;;7581037;19;20135;-83
2023/07/04 04:40:19;;;;;;;;;;;16.80;99.90;;;;;;7589789;19;19922;-83
2023/07/04 04:42:53;;;;;;;;;;;16.90;99.90;;;;;;7582775;19;20032;-82
2023/07/04 04:45:25;;;;;;;;;;;16.90;99.90;;;;;;7568445;19;19918;-82
2023/07/04 04:48:01;;;;;;;;;;;16.90;99.90;;;;;;7575456;19;19926;-84
2023/07/04 04:50:35;;;;;;;;;;;17.00;99.90;;;;;;7576091;19;19929;-82
2023/07/04 04:53:14;;;;;;;;;;;17.10;99.90;;;;;;7590339;19;19922;-83
2023/07/04 04:55:46;;;;;;;;;;;17.10;99.90;;;;;;7609029;19;19966;-83
2023/07/04 04:58:19;;;;;;;;;;;17.20;99.90;;;;;;7604156;19;19931;-84
2023/07/04 05:00:51;;;;;;;;;;;17.10;99.90;;;;;;7581516;19;19919;-84
2023/07/04 05:03:25;;;;;;;;;;;17.20;99.90;;;;;;7569171;19;19989;-83
2023/07/04 05:06:01;;;;;;;;;;;17.20;99.90;;;;;;7574958;19;20420;-83
2023/07/04 05:08:33;;;;;;;;;;;17.30;99.90;;;;;;7556530;19;21075;-83
2023/07/04 05:11:07;;;;;;;;;;;17.30;99.90;;;;;;7544653;19;19919;-83
2023/07/04 05:13:46;;;;;;;;;;;17.30;99.90;;;;;;7586950;19;21739;-83
2023/07/04 05:16:19;;;;;;;;;;;17.30;99.90;;;;;;7598286;19;19922;-82
2023/07/04 05:18:55;;;;;;;;;;;17.40;99.90;;;;;;7587865;19;19923;-83
2023/07/04 05:21:27;;;;;;;;;;;17.40;99.90;;;;;;7604547;19;19926;-83
2023/07/04 05:24:00;;;;;;;;;;;17.40;99.90;;;;;;7587399;19;20881;-83
2023/07/04 05:26:32;;;;;;;;;;;17.50;99.90;;;;;;7567525;19;19953;-78
2023/07/04 05:29:06;;;;;;;;;;;17.50;99.90;;;;;;7591679;19;19931;-79
2023/07/04 05:31:38;;;;;;;;;;;17.50;99.90;;;;;;7568872;19;20010;-78
2023/07/04 05:34:11;;;;;;;;;;;17.50;99.90;;;;;;7590519;19;19918;-80
2023/07/04 05:36:43;;;;;;;;;;;17.50;99.90;;;;;;7574665;19;19990;-78
2023/07/04 05:39:15;;;;;;;;;;;17.50;99.90;;;;;;7608003;19;20002;-78
2023/07/04 05:41:47;;;;;;;;;;;17.60;99.90;;;;;;7589833;19;19922;-77
2023/07/04 05:44:21;;;;;;;;;;;17.70;99.90;;;;;;7611515;19;19919;-78
2023/07/04 05:46:53;;;;;;;;;;;17.60;99.90;;;;;;7598359;19;20145;-78
2023/07/04 05:49:25;;;;;;;;;;;17.70;99.90;;;;;;7604361;19;19922;-78
2023/07/04 05:51:58;;;;;;;;;;;17.80;99.90;;;;;;7601652;19;19910;-78
2023/07/04 05:54:30;;;;;;;;;;;17.70;99.90;;;;;;7582746;19;19957;-76
2023/07/04 05:57:03;;;;;;;;;;;17.80;99.90;;;;;;7604234;19;19926;-78
2023/07/04 05:59:35;;;;;;;;;;;17.70;99.90;;;;;;7598163;19;19962;-77
2023/07/04 06:02:08;;;;;;;;;;;17.70;99.90;;;;;;7600376;19;19927;-77
2023/07/04 06:04:40;;;;;;;;;;;17.70;99.90;;;;;;7603712;19;19974;-77
2023/07/04 06:07:12;;;;;;;;;;;17.70;99.90;;;;;;7612564;19;19919;-78
2023/07/04 06:09:45;;;;;;;;;;;17.70;99.90;;;;;;7612039;19;19940;-77
2023/07/04 06:12:17;;;;;;;;;;;17.70;99.90;;;;;;7612675;19;19918;-78
2023/07/04 06:14:49;;;;;;;;;;;17.80;99.90;;;;;;7610105;19;19926;-76
2023/07/04 06:17:21;;;;;;;;;;;17.80;99.90;;;;;;7622829;19;19943;-79
2023/07/04 06:19:53;;;;;;;;;;;17.90;99.90;;;;;;7621584;19;19918;-76
2023/07/04 06:22:27;;;;;;;;;;;18.00;99.90;;;;;;7628213;19;19922;-79
2023/07/04 06:24:59;;;;;;;;;;;18.10;99.90;;;;;;7613110;19;20476;-79
2023/07/04 06:27:31;;;;;;;;;;;18.10;99.90;;;;;;7631073;19;19926;-78
2023/07/04 06:30:04;;;;;;;;;;;18.10;99.90;;;;;;7630003;19;19961;-78
2023/07/04 06:32:37;;;;;;;;;;;18.30;99.90;;;;;;7632665;19;19922;-77
2023/07/04 06:35:09;;;;;;;;;;;18.40;99.90;;;;;;7631433;19;19931;-80
2023/07/04 06:37:41;;;;;;;;;;;18.70;99.90;;;;;;7633114;19;19930;-79
2023/07/04 06:40:14;;;;;;;;;;;18.80;99.90;;;;;;7622135;19;20037;-79
2023/07/04 06:42:46;;;;;;;;;;;18.90;99.90;;;;;;7597329;19;20449;-78
2023/07/04 06:45:18;;;;;;;;;;;18.80;99.90;;;;;;7613480;19;20489;-77
2023/07/04 06:47:53;;;;;;;;;;;18.90;99.90;;;;;;7616560;19;19922;-78
2023/07/04 06:50:25;;;;;;;;;;;19.00;99.90;;;;;;7616633;19;19921;-80
2023/07/04 06:52:57;;;;;;;;;;;19.20;99.90;;;;;;7604906;19;19922;-78
2023/07/04 06:55:30;;;;;;;;;;;19.20;99.90;;;;;;7618982;19;19915;-80
2023/07/04 06:58:04;;;;;;;;;;;19.40;99.90;;;;;;7608419;19;19934;-78
2023/07/04 07:00:36;;;;;;;;;;;19.50;99.90;;;;;;7622189;19;19974;-79
2023/07/04 07:03:08;;;;;;;;;;;19.60;99.90;;;;;;7619444;19;20368;-78
2023/07/04 07:05:41;;;;;;;;;;;19.60;99.90;;;;;;7613261;19;20302;-77
2023/07/04 07:08:16;;;;;;;;;;;19.60;99.90;;;;;;7621088;19;19922;-79
2023/07/04 07:10:55;;;;;;;;;;;19.70;99.90;;;;;;7619709;19;19914;-78
2023/07/04 07:13:28;;;;;;;;;;;19.70;99.90;;;;;;7619264;19;19926;-79
2023/07/04 07:16:04;;;;;;;;;;;19.50;99.90;;;;;;7593927;19;19923;-76
2023/07/04 07:18:37;;;;;;;;;;;19.40;99.90;;;;;;7623391;19;20504;-77
2023/07/04 07:21:11;;;;;;;;;;;19.60;99.90;;;;;;7598950;19;19915;-77
2023/07/04 07:23:44;;;;;;;;;;;19.70;99.90;;;;;;7599645;19;20929;-77
2023/07/04 07:26:17;;;;;;;;;;;19.80;99.90;;;;;;7596495;19;19923;-77
2023/07/04 07:28:53;;;;;;;;;;;20.00;99.90;;;;;;7603138;19;19953;-77
2023/07/04 07:31:27;;;;;;;;;;;19.90;99.90;;;;;;7596634;19;19943;-77
2023/07/04 07:34:05;;;;;;;;;;;19.90;99.90;;;;;;7606598;19;19922;-78
2023/07/04 07:36:41;;;;;;;;;;;20.00;99.90;;;;;;7610131;19;19926;-78
2023/07/04 07:39:15;;;;;;;;;;;19.90;99.90;;;;;;7597627;19;19930;-77
2023/07/04 07:41:47;;;;;;;;;;;20.00;99.90;;;;;;7598779;19;19950;-77
2023/07/04 07:44:19;;;;;;;;;;;20.00;99.90;;;;;;7604252;19;19918;-78
2023/07/04 07:46:51;;;;;;;;;;;20.00;99.90;;;;;;7597394;19;19915;-77
2023/07/04 07:49:24;;;;;;;;;;;19.90;99.90;;;;;;7603457;19;19957;-77
2023/07/04 07:51:56;;;;;;;;;;;20.20;99.90;;;;;;7603843;19;19926;-78
2023/07/04 07:54:31;;;;;;;;;;;20.40;99.90;;;;;;7605625;19;19919;-77
2023/07/04 07:57:06;;;;;;;;;;;20.60;99.90;;;;;;7601299;19;19922;-77
2023/07/04 07:59:38;;;;;;;;;;;20.60;99.90;;;;;;7607361;19;19934;-76
2023/07/04 08:02:13;;;;;;;;;;;20.60;99.90;;;;;;7592824;19;19926;-80
2023/07/04 08:04:45;;;;;;;;;;;20.60;99.90;;;;;;7602615;19;19918;-78
2023/07/04 08:07:17;;;;;;;;;;;20.70;99.90;;;;;;7587532;19;19951;-77
2023/07/04 08:09:49;;;;;;;;;;;20.70;99.90;;;;;;7600906;19;19938;-79
2023/07/04 08:12:21;;;;;;;;;;;20.60;99.90;;;;;;7598929;19;19929;-76
2023/07/04 08:14:54;;;;;;;;;;;20.50;99.90;;;;;;7594068;19;19956;-79
2023/07/04 08:17:26;;;;;;;;;;;20.70;99.90;;;;;;7606921;19;19955;-79
2023/07/04 08:19:58;;;;;;;;;;;20.70;99.90;;;;;;7606363;19;19918;-77
2023/07/04 08:22:31;;;;;;;;;;;20.70;99.90;;;;;;7609841;19;19919;-78
2023/07/04 08:25:05;;;;;;;;;;;20.50;99.90;;;;;;7602529;19;19927;-77
2023/07/04 08:27:37;;;;;;;;;;;20.50;99.90;;;;;;7595450;19;19956;-78
2023/07/04 08:30:09;;;;;;;;;;;20.40;99.90;;;;;;7593633;19;19926;-79
2023/07/04 08:32:41;;;;;;;;;;;20.40;99.90;;;;;;7601385;19;19937;-78
2023/07/04 08:35:14;;;;;;;;;;;20.20;99.90;;;;;;7606996;19;19933;-79
2023/07/04 08:37:49;;;;;;;;;;;20.30;99.90;;;;;;7616839;19;19910;-77
2023/07/04 08:40:21;;;;;;;;;;;20.20;99.90;;;;;;7628244;19;19919;-77
2023/07/04 08:42:53;;;;;;;;;;;20.50;99.90;;;;;;7612887;19;19926;-76
2023/07/04 08:45:28;;;;;;;;;;;20.70;99.90;;;;;;7631606;19;19922;-76
2023/07/04 08:48:02;;;;;;;;;;;20.80;99.90;;;;;;7594537;19;21076;-77
2023/07/04 08:50:36;;;;;;;;;;;20.80;99.90;;;;;;7590865;19;19918;-77
2023/07/04 08:53:18;;;;;;;;;;;20.70;99.90;;;;;;7585999;19;20643;-77
2023/07/04 08:55:56;;;;;;;;;;;20.60;99.90;;;;;;7591995;19;20317;-78
2023/07/04 08:58:33;;;;;;;;;;;20.50;99.90;;;;;;7602913;19;19955;-78
2023/07/04 09:01:10;;;;;;;;;;;20.60;99.90;;;;;;7598557;19;19945;-77
2023/07/04 09:03:47;;;;;;;;;;;20.90;99.90;;;;;;7589293;19;19926;-77
2023/07/04 09:06:26;;;;;;;;;;;21.00;99.90;;;;;;7595327;19;19911;-78
2023/07/04 09:09:02;;;;;;;;;;;21.00;99.90;;;;;;7596969;19;20480;-77
2023/07/04 09:11:35;;;;;;;;;;;21.10;99.90;;;;;;7601032;19;19918;-79
2023/07/04 09:14:37;;;;;;;;;;;21.10;99.90;;;;;;7589826;19;20820;-80
2023/07/04 09:17:19;;;;;;;;;;;21.20;99.90;;;;;;7582978;19;19925;-79
2023/07/04 09:19:51;;;;;;;;;;;21.40;99.90;;;;;;7577199;19;19919;-78
2023/07/04 09:22:24;;;;;;;;;;;21.50;99.90;;;;;;7593899;19;19927;-77
2023/07/04 09:24:56;;;;;;;;;;;21.40;99.10;;;;;;7603219;19;19923;-79
2023/07/04 09:27:29;;;;;;;;;;;21.50;99.40;;;;;;7607445;19;20528;-79
2023/07/04 09:30:03;;;;;;;;;;;21.60;98.80;;;;;;7604442;19;20384;-78
2023/07/04 09:32:36;;;;;;;;;;;21.80;99.40;;;;;;7606722;19;20563;-79
2023/07/04 09:35:10;;;;;;;;;;;21.80;97.70;;;;;;7602709;19;20002;-77
2023/07/04 09:37:53;;;;;;;;;;;22.00;99.40;;;;;;7600663;19;20464;-78
2023/07/04 09:40:41;;;;;;;;;;;22.20;97.70;;;;;;7610664;19;19914;-78
2023/07/04 09:43:33;;;;;;;;;;;22.10;97.70;;;;;;7600758;19;19943;-78
2023/07/04 09:46:25;;;;;;;;;;;22.10;98.50;;;;;;7590812;19;19966;-79
2023/07/04 09:49:16;;;;;;;;;;;22.20;97.80;;;;;;7605433;19;19960;-79
2023/07/04 09:52:08;;;;;;;;;;;22.20;98.00;;;;;;7608832;19;19930;-78
2023/07/04 09:54:41;;;;;;;;;;;22.10;97.30;;;;;;7601797;19;20022;-79
2023/07/04 09:57:19;;;;;;;;;;;22.10;97.60;;;;;;7604366;19;19926;-78
2023/07/04 09:59:53;;;;;;;;;;;22.20;97.50;;;;;;7604802;19;19922;-78
2023/07/04 10:02:34;;;;;;;;;;;22.30;96.00;;;;;;7619876;19;19926;-79
2023/07/04 10:05:08;;;;;;;;;;;22.50;95.60;;;;;;7621144;19;19932;-79
2023/07/04 10:07:40;;;;;;;;;;;22.70;95.30;;;;;;7619036;19;20401;-79
2023/07/04 10:10:12;;;;;;;;;;;22.70;94.50;;;;;;7620275;19;21161;-77
2023/07/04 10:12:45;;;;;;;;;;;22.70;93.50;;;;;;7613500;19;19915;-77
2023/07/04 10:15:25;;;;;;;;;;;22.80;95.10;;;;;;7615389;19;19922;-77
2023/07/04 10:17:58;;;;;;;;;;;22.90;94.40;;;;;;7624204;19;19922;-77
2023/07/04 10:20:35;;;;;;;;;;;23.10;94.60;;;;;;7623853;19;19926;-78
2023/07/04 10:23:08;;;;;;;;;;;23.30;93.20;;;;;;7625899;19;19931;-77
2023/07/04 10:25:40;;;;;;;;;;;23.00;93.00;;;;;;7613978;19;19926;-78
2023/07/04 10:28:17;;;;;;;;;;;23.20;93.10;;;;;;7617637;19;19922;-76
2023/07/04 10:30:51;;;;;;;;;;;23.40;92.80;;;;;;7618770;19;19918;-75
2023/07/04 10:33:36;;;;;;;;;;;23.50;92.40;;;;;;7621356;19;20487;-75
2023/07/04 10:36:10;;;;;;;;;;;23.30;92.40;;;;;;7616189;19;20297;-75
2023/07/04 10:38:44;;;;;;;;;;;24.10;92.50;;;;;;7620291;19;19922;-75
2023/07/04 10:41:23;;;;;;;;;;;24.10;92.10;;;;;;7623443;19;19930;-78
2023/07/04 10:44:02;;;;;;;;;;;24.50;91.30;;;;;;7617944;19;19932;-78
2023/07/04 10:46:43;;;;;;;;;;;24.90;89.20;;;;;;7626174;19;19923;-77
2023/07/04 10:49:18;;;;;;;;;;;24.40;89.00;;;;;;7636312;19;19931;-78
2023/07/04 10:51:53;;;;;;;;;;;24.20;90.60;;;;;;7632772;19;19915;-79
2023/07/04 10:54:25;;;;;;;;;;;24.70;88.90;;;;;;7623691;19;19919;-77
2023/07/04 10:57:04;;;;;;;;;;;25.20;90.10;;;;;;7617841;19;19926;-78
2023/07/04 10:59:41;;;;;;;;;;;25.60;87.10;;;;;;7615822;19;20574;-78
2023/07/04 11:02:19;;;;;;;;;;;26.00;86.60;;;;;;7630800;19;19947;-76
2023/07/04 11:04:54;;;;;;;;;;;26.00;82.60;;;;;;7641709;19;19923;-76
2023/07/04 11:07:26;;;;;;;;;;;25.90;82.00;;;;;;7624564;19;19939;-77
2023/07/04 11:10:02;;;;;;;;;;;25.80;82.10;;;;;;7635877;19;19926;-77
2023/07/04 11:12:35;;;;;;;;;;;26.60;81.00;;;;;;7607294;19;19925;-78
2023/07/04 11:15:18;;;;;;;;;;;27.00;81.20;;;;;;7591839;19;19922;-77
2023/07/04 11:17:50;;;;;;;;;;;27.30;79.50;;;;;;7606913;19;19923;-77
2023/07/04 11:20:49;;;;;;;;;;;27.20;75.10;;;;;;7593854;19;19923;-77
2023/07/04 11:23:22;;;;;;;;;;;27.20;76.20;;;;;;7595948;19;19930;-77
2023/07/04 11:26:04;;;;;;;;;;;27.40;74.90;;;;;;7603297;19;19997;-76
2023/07/04 11:28:38;;;;;;;;;;;27.60;75.60;;;;;;7581563;19;19924;-76
2023/07/04 11:31:19;;;;;;;;;;;27.40;73.10;;;;;;7561557;19;19907;-77
2023/07/04 11:33:51;;;;;;;;;;;27.20;74.10;;;;;;7581096;19;19934;-77
2023/07/04 11:36:24;;;;;;;;;;;27.40;71.70;;;;;;7590543;19;20535;-77
2023/07/04 11:38:57;;;;;;;;;;;27.20;71.60;;;;;;7601100;19;19926;-77
2023/07/04 11:41:39;;;;;;;;;;;27.30;71.40;;;;;;7606667;19;19914;-79
2023/07/04 11:44:21;;;;;;;;;;;27.50;73.00;;;;;;7574395;19;19930;-78
2023/07/04 11:46:58;;;;;;;;;;;27.40;71.80;;;;;;7576681;19;19926;-76
2023/07/04 11:49:31;;;;;;;;;;;27.20;71.20;;;;;;7569570;19;19925;-77
2023/07/04 11:52:06;;;;;;;;;;;26.70;71.50;;;;;;7589279;19;19931;-78
2023/07/04 11:54:38;;;;;;;;;;;27.00;72.40;;;;;;7585707;19;19935;-77
2023/07/04 11:57:10;;;;;;;;;;;27.10;73.20;;;;;;7577131;19;21324;-77
2023/07/04 11:59:48;;;;;;;;;;;26.60;70.70;;;;;;7588414;19;19914;-75
2023/07/04 12:02:25;;;;;;;;;;;26.90;73.90;;;;;;7588172;19;19914;-77
2023/07/04 12:05:00;;;;;;;;;;;27.20;72.20;;;;;;7581841;19;19923;-76
2023/07/04 12:07:37;;;;;;;;;;;26.80;69.50;;;;;;7592408;19;20160;-78
2023/07/04 12:10:19;;;;;;;;;;;26.50;72.00;;;;;;7560984;19;19915;-75
2023/07/04 12:12:59;;;;;;;;;;;26.60;74.00;;;;;;7587325;19;19933;-76
2023/07/04 12:15:32;;;;;;;;;;;27.20;73.20;;;;;;7581462;19;19978;-78
2023/07/04 12:18:14;;;;;;;;;;;27.20;70.70;;;;;;7594093;19;19922;-77
2023/07/04 12:20:47;;;;;;;;;;;28.00;72.10;;;;;;7582038;19;19911;-78
2023/07/04 12:23:20;;;;;;;;;;;28.10;68.90;;;;;;7521589;19;19911;-78
2023/07/04 12:25:59;;;;;;;;;;;27.60;67.60;;;;;;7538922;19;19922;-77
2023/07/04 12:28:31;;;;;;;;;;;27.60;69.70;;;;;;7548790;19;19922;-78
2023/07/04 12:31:06;;;;;;;;;;;27.60;67.90;;;;;;7530895;19;19923;-78
2023/07/04 12:33:44;;;;;;;;;;;27.60;66.60;;;;;;7554932;19;20855;-78
2023/07/04 12:36:16;;;;;;;;;;;28.00;68.10;;;;;;7581597;19;19923;-78
2023/07/04 12:38:54;;;;;;;;;;;28.50;68.50;;;;;;7542060;19;19914;-77
2023/07/04 12:41:30;;;;;;;;;;;28.70;65.30;;;;;;7558660;19;19918;-77
2023/07/04 12:44:04;;;;;;;;;;;28.80;64.60;;;;;;7555426;19;20792;-77
2023/07/04 12:46:43;;;;;;;;;;;28.40;65.80;;;;;;7563590;19;19936;-78
2023/07/04 12:49:20;;;;;;;;;;;28.20;64.80;;;;;;7561690;19;19914;-78
2023/07/04 12:51:56;;;;;;;;;;;27.70;66.70;;;;;;7548537;19;19930;-77
2023/07/04 12:54:30;;;;;;;;;;;27.80;67.70;;;;;;7567159;19;19926;-78
2023/07/04 12:57:04;;;;;;;;;;;27.70;66.70;;;;;;7570985;19;19933;-77
2023/07/04 12:59:39;;;;;;;;;;;28.00;67.10;;;;;;7569541;19;19915;-77
2023/07/04 13:02:14;;;;;;;;;;;28.80;67.40;;;;;;7595312;19;20879;-78
2023/07/04 13:04:46;;;;;;;;;;;28.90;63.50;;;;;;7601233;19;19938;-76
2023/07/04 13:07:19;;;;;;;;;;;28.70;63.00;;;;;;7590796;19;19919;-76
2023/07/04 13:09:55;;;;;;;;;;;28.60;64.00;;;;;;7581069;19;19946;-76
2023/07/04 13:12:29;;;;;;;;;;;28.40;66.40;;;;;;7593216;19;20566;-76
2023/07/04 13:15:04;;;;;;;;;;;28.70;65.70;;;;;;7582451;19;19925;-76
2023/07/04 13:17:37;;;;;;;;;;;28.90;64.00;;;;;;7544361;19;19930;-77
2023/07/04 13:20:10;;;;;;;;;;;29.30;62.40;;;;;;7581738;19;19918;-79
2023/07/04 13:22:43;;;;;;;;;;;29.50;61.40;;;;;;7554261;19;19994;-77
2023/07/04 13:25:23;;;;;;;;;;;29.90;60.40;;;;;;7582002;19;19923;-76
2023/07/04 13:28:34;;;;;;;;;;;29.90;60.60;;;;;;7580062;19;19918;-76
2023/07/04 13:31:15;;;;;;;;;;;30.30;62.10;;;;;;7587513;19;19929;-76
2023/07/04 13:33:55;;;;;;;;;;;30.00;61.30;;;;;;7603702;19;20869;-76
2023/07/04 13:36:38;;;;;;;;;;;29.40;59.90;;;;;;7586768;19;19910;-76
2023/07/04 13:39:10;;;;;;;;;;;29.00;62.40;;;;;;7558303;19;19922;-75
2023/07/04 13:41:47;;;;;;;;;;;28.50;63.60;;;;;;7575909;19;19947;-79
2023/07/04 13:44:20;;;;;;;;;;;28.80;61.60;;;;;;7560127;19;19930;-77
2023/07/04 13:46:55;;;;;;;;;;;28.80;61.20;;;;;;7549780;19;19915;-77
2023/07/04 13:49:28;;;;;;;;;;;28.90;62.30;;;;;;7576849;19;19932;-78
2023/07/04 13:52:00;;;;;;;;;;;29.30;59.30;;;;;;7593284;19;19919;-77
2023/07/04 13:54:32;;;;;;;;;;;29.50;61.90;;;;;;7588725;19;19935;-77
2023/07/04 13:57:04;;;;;;;;;;;29.50;59.00;;;;;;7600781;19;19922;-77
2023/07/04 13:59:37;;;;;;;;;;;29.60;58.40;;;;;;7597990;19;19925;-76
2023/07/04 14:02:09;;;;;;;;;;;29.60;57.60;;;;;;7603950;19;19960;-76
2023/07/04 14:04:44;;;;;;;;;;;29.50;57.40;;;;;;7597902;19;20381;-77
2023/07/04 14:07:19;;;;;;;;;;;29.40;57.60;;;;;;7589108;19;20346;-77
2023/07/04 14:09:52;;;;;;;;;;;29.90;58.60;;;;;;7596350;19;19927;-75
2023/07/04 14:12:24;;;;;;;;;;;30.70;57.50;;;;;;7590628;19;20978;-76
2023/07/04 14:14:56;;;;;;;;;;;31.10;56.20;;;;;;7599554;19;19989;-77
2023/07/04 14:17:31;;;;;;;;;;;31.10;54.50;;;;;;7600580;19;19930;-77
2023/07/04 14:20:24;;;;;;;;;;;31.30;57.10;;;;;;7579291;19;19930;-77
2023/07/04 14:22:56;;;;;;;;;;;31.50;53.90;;;;;;7570073;19;19998;-77
2023/07/04 14:25:29;;;;;;;;;;;31.10;54.30;;;;;;7580534;19;19925;-77
2023/07/04 14:28:01;;;;;;;;;;;31.20;52.50;;;;;;7595663;19;20484;-77
2023/07/04 14:30:34;;;;;;;;;;;31.10;54.10;;;;;;7580969;19;20424;-78
2023/07/04 14:33:06;;;;;;;;;;;31.20;54.70;;;;;;7600470;19;19923;-77
2023/07/04 14:35:39;;;;;;;;;;;31.10;54.20;;;;;;7603822;19;19932;-75
2023/07/04 14:38:11;;;;;;;;;;;31.30;52.10;;;;;;7631332;19;19914;-76
2023/07/04 14:40:43;;;;;;;;;;;31.60;53.90;;;;;;7624023;19;19948;-76
2023/07/04 14:43:18;;;;;;;;;;;30.90;52.60;;;;;;7624667;19;19918;-77
2023/07/04 14:46:01;;;;;;;;;;;30.90;54.00;;;;;;7606649;19;21646;-78
2023/07/04 14:48:34;;;;;;;;;;;30.80;55.00;;;;;;7599806;19;19923;-77
2023/07/04 14:51:12;;;;;;;;;;;31.10;54.70;;;;;;7596055;19;19943;-77
2023/07/04 14:53:45;;;;;;;;;;;31.30;54.20;;;;;;7607980;19;19922;-76
2023/07/04 14:56:17;;;;;;;;;;;31.40;53.30;;;;;;7596972;19;19933;-78
2023/07/04 14:58:49;;;;;;;;;;;31.50;53.30;;;;;;7602690;19;19961;-77